Berge Rishiri — MADD2 — position and weather

sailwx.info

Track history (hours):
 
Tides and Currents Weather Stations Pressure Air Temp Water Temp Dewpoint Dewpoint Depression Visibility Wind Speed Wind Dir Waves Ship Positions

Berge Rishiri

Last reported at 2018-Jul-12 20:21 UTC. Time now 2018-Jul-23 06:01 UTC.
Position N 01°06' E 104°59'.
Warning: this ship's position is 10 days out of date.

Length 180 m; draft 6.2 m.

Type: Cargo ship. MMSI: 232003534.

Date/timePositionNaut miles runAvg speedWind from/ knotsBaromVisibWave heightAir tempDewpointWater temp
2018-Jul-12 20:21N 01°06' E 104°59'1810.8
2018-Jul-12 18:39N 01°16' E 104°44'213.4
2018-Jul-12 18:28N 01°17' E 104°41'613.2
2018-Jul-12 17:59N 01°17' E 104°35'714.4
2018-Jul-12 17:29N 01°17' E 104°28'814.8
2018-Jul-12 16:57N 01°17' E 104°20'715.0
2018-Jul-12 16:30N 01°16' E 104°13'714.2
2018-Jul-12 16:00N 01°15' E 104°06'713.5
2018-Jul-12 15:30N 01°15' E 103°60'3 6.4
2018-Jul-12 15:00N 01°16' E 103°57'1 2.3
2018-Jul-12 14:29N 01°17' E 103°56'0 0.1
2018-Jul-12 13:55N 01°17' E 103°56'0 0.1
2018-Jul-12 13:20N 01°17' E 103°56'0 0.1
2018-Jul-12 12:56N 01°17' E 103°56'0 0.1
2018-Jul-12 12:29N 01°17' E 103°56'0 0.0
2018-Jul-12 11:58N 01°17' E 103°56'0 0.0
2018-Jul-12 11:26N 01°17' E 103°56'0 0.0
2018-Jul-12 10:59N 01°17' E 103°56'0 0.0
2018-Jul-12 10:22N 01°17' E 103°56'0 0.0
2018-Jul-12 09:47N 01°17' E 103°56'0 0.1
2018-Jul-12 09:28N 01°17' E 103°56'0 0.1
2018-Jul-12 08:57N 01°17' E 103°56'0 0.1
2018-Jul-12 08:27N 01°17' E 103°56'0 0.0
2018-Jul-12 07:57N 01°17' E 103°56'0 0.0
2018-Jul-12 07:30N 01°17' E 103°56'0 0.1
2018-Jul-12 06:57N 01°17' E 103°56'0 0.0
2018-Jul-12 06:30N 01°17' E 103°56'0 0.1
2018-Jul-12 05:58N 01°17' E 103°56'0 0.0
2018-Jul-12 05:30N 01°17' E 103°56'0 0.0
2018-Jul-12 04:54N 01°17' E 103°56'0 0.1
2018-Jul-12 04:27N 01°17' E 103°56'0 0.0
2018-Jul-12 03:57N 01°17' E 103°56'0 0.0
2018-Jul-12 03:30N 01°17' E 103°56'0 0.0
2018-Jul-12 02:52N 01°17' E 103°56'0 0.0
2018-Jul-12 02:19N 01°17' E 103°56'0 0.3
2018-Jul-12 01:59N 01°17' E 103°56'0 0.7
2018-Jul-12 01:30N 01°17' E 103°56'2 4.7
2018-Jul-12 01:00N 01°14' E 103°57'3 5.9
2018-Jul-12 00:30N 01°13' E 103°55'4 7.2
2018-Jul-12 00:00N 01°11' E 103°51'611.2
2018-Jul-11 23:29N 01°08' E 103°46'612.1
2018-Jul-11 23:00N 01°04' E 103°42'510.2
2018-Jul-11 22:30N 01°03' E 103°37'510.4
2018-Jul-11 21:59N 01°07' E 103°33'510.3
2018-Jul-11 21:30N 01°09' E 103°28'510.5
2018-Jul-11 20:59N 01°12' E 103°24'710.8
2018-Jul-11 20:20N 01°17' E 103°19'410.5
2018-Jul-11 19:58N 01°19' E 103°16'  
Track history (hours):
 
Tides and Currents Weather Stations Pressure Air Temp Water Temp Dewpoint Dewpoint Depression Visibility Wind Speed Wind Dir Waves Ship Positions

Berge Rishiri

Last reported at 2018-Jul-12 20:21 UTC. Time now 2018-Jul-23 06:01 UTC.
Position N 01°06' E 104°59'.
Warning: this ship's position is 10 days out of date.

Length 180 m; draft 6.2 m.

Type: Cargo ship. MMSI: 232003534.

Date/timePositionNaut miles runAvg speedWind from/ knotsBaromVisibWave heightAir tempDewpointWater temp
2018-Jul-12 20:21N 01°06' E 104°59'1810.8
2018-Jul-12 18:39N 01°16' E 104°44'213.4
2018-Jul-12 18:28N 01°17' E 104°41'613.2
2018-Jul-12 17:59N 01°17' E 104°35'714.4
2018-Jul-12 17:29N 01°17' E 104°28'814.8
2018-Jul-12 16:57N 01°17' E 104°20'715.0
2018-Jul-12 16:30N 01°16' E 104°13'714.2
2018-Jul-12 16:00N 01°15' E 104°06'713.5
2018-Jul-12 15:30N 01°15' E 103°60'3 6.4
2018-Jul-12 15:00N 01°16' E 103°57'1 2.3
2018-Jul-12 14:29N 01°17' E 103°56'0 0.1
2018-Jul-12 13:55N 01°17' E 103°56'0 0.1
2018-Jul-12 13:20N 01°17' E 103°56'0 0.1
2018-Jul-12 12:56N 01°17' E 103°56'0 0.1
2018-Jul-12 12:29N 01°17' E 103°56'0 0.0
2018-Jul-12 11:58N 01°17' E 103°56'0 0.0
2018-Jul-12 11:26N 01°17' E 103°56'0 0.0
2018-Jul-12 10:59N 01°17' E 103°56'0 0.0
2018-Jul-12 10:22N 01°17' E 103°56'0 0.0
2018-Jul-12 09:47N 01°17' E 103°56'0 0.1
2018-Jul-12 09:28N 01°17' E 103°56'0 0.1
2018-Jul-12 08:57N 01°17' E 103°56'0 0.1
2018-Jul-12 08:27N 01°17' E 103°56'0 0.0
2018-Jul-12 07:57N 01°17' E 103°56'0 0.0
2018-Jul-12 07:30N 01°17' E 103°56'0 0.1
2018-Jul-12 06:57N 01°17' E 103°56'0 0.0
2018-Jul-12 06:30N 01°17' E 103°56'0 0.1
2018-Jul-12 05:58N 01°17' E 103°56'0 0.0
2018-Jul-12 05:30N 01°17' E 103°56'0 0.0
2018-Jul-12 04:54N 01°17' E 103°56'0 0.1
2018-Jul-12 04:27N 01°17' E 103°56'0 0.0
2018-Jul-12 03:57N 01°17' E 103°56'0 0.0
2018-Jul-12 03:30N 01°17' E 103°56'0 0.0
2018-Jul-12 02:52N 01°17' E 103°56'0 0.0
2018-Jul-12 02:19N 01°17' E 103°56'0 0.3
2018-Jul-12 01:59N 01°17' E 103°56'0 0.7
2018-Jul-12 01:30N 01°17' E 103°56'2 4.7
2018-Jul-12 01:00N 01°14' E 103°57'3 5.9
2018-Jul-12 00:30N 01°13' E 103°55'4 7.2
2018-Jul-12 00:00N 01°11' E 103°51'611.2
2018-Jul-11 23:29N 01°08' E 103°46'612.1
2018-Jul-11 23:00N 01°04' E 103°42'510.2
2018-Jul-11 22:30N 01°03' E 103°37'510.4
2018-Jul-11 21:59N 01°07' E 103°33'510.3
2018-Jul-11 21:30N 01°09' E 103°28'510.5
2018-Jul-11 20:59N 01°12' E 103°24'710.8
2018-Jul-11 20:20N 01°17' E 103°19'410.5
2018-Jul-11 19:58N 01°19' E 103°16'  

Dump ship's entire track history